Terminal Aerodrome Forecast
Issued by NWS

Home | Current Version | Previous Version | Text Only | Print | Product List | Glossary On
Versions: 1 2 3 4 5 6 7 8 9 10 11 12 13 14 15 16 17
000
FTUS44 KOUN 301120
TAFPNC
TAF
KPNC 301120Z 3012/3112 14008KT P6SM FEW050 BKN120
     FM301700 17008KT P6SM BKN120
     FM302200 16008KT P6SM BKN250
     FM310900 15005KT 5SM BR BKN015=

USA.gov is the U.S. government's official web portal to all federal, state and local government web resources and services.